Home > Products > Valid Products > MTR

000
SAUS43 KBIS 301554
MTRN60
METAR KN60 301552Z AUTO 14013KT 08/M01 A3036 RMK AO1 SLP295
T00831011





000
SAUS43 KBIS 301453
MTRN60
METAR KN60 301452Z AUTO 13012KT 07/M01 A3038 RMK AO1 SLP302
T00671006 50002





000
SAUS43 KBIS 301453
MTRN60
METAR KN60 301452Z AUTO 13012KT 07/M01 A3038 RMK AO1 SLP302
T00671006 50002





000
SAUS43 KBIS 301354
MTRN60
METAR KN60 301352Z AUTO 13013KT 06/M01 A3039 RMK AO1 SLP304
T00561011





000
SAUS43 KBIS 301253
MTRN60
METAR KN60 301252Z AUTO 13011KT 04/M01 A3038 RMK AO1 SLP300
T00441011





000
SAUS43 KBIS 301154
MTRN60
METAR KN60 301152Z AUTO 13012KT 04/M01 A3038 RMK AO1 SLP298
T00391011 10067 20028 51009





000
SAUS43 KBIS 301154
MTRN60
METAR KN60 301152Z AUTO 13012KT 04/M01 A3038 RMK AO1 SLP298
T00391011 10067 20028 51009





000
SAUS43 KBIS 301054
MTRN60
METAR KN60 301052Z AUTO 09007KT 03/M01 A3038 RMK AO1 SLP299
T00281011





000
SAUS43 KBIS 301054
MTRN60
METAR KN60 301052Z AUTO 09007KT 03/M01 A3038 RMK AO1 SLP299
T00281011





000
SAUS43 KBIS 300954
MTRN60
METAR KN60 300952Z AUTO 10009KT 03/M01 A3036 RMK AO1 SLP292
T00331006





000
SAUS43 KBIS 300854
MTRN60
METAR KN60 300852Z AUTO 10010KT 04/00 A3035 RMK AO1 SLP290 T00390000
53015





000
SAUS43 KBIS 300854
MTRN60
METAR KN60 300852Z AUTO 10010KT 04/00 A3035 RMK AO1 SLP290 T00390000
53015





000
SAUS43 KBIS 300754
MTRN60
METAR KN60 300752Z AUTO 09010KT 05/01 A3033 RMK AO1 SLP282 T00500006





000
SAUS43 KBIS 300653
MTRN60
METAR KN60 300652Z AUTO 08011KT 06/01 A3031 RMK AO1 SLP277 T00610011





000
SAUS43 KBIS 300554
MTRN60
METAR KN60 300552Z AUTO 05006KT 06/02 A3030 RMK AO1 SLP273 T00610022
10139 20039 401390039 51005





000
SAUS43 KBIS 300554
MTRN60
METAR KN60 300552Z AUTO 05006KT 06/02 A3030 RMK AO1 SLP273 T00610022
10139 20039 401390039 51005





000
SAUS43 KBIS 300454
MTRN60
METAR KN60 300452Z AUTO 03004KT 06/02 A3030 RMK AO1 SLP273 T00610022





000
SAUS43 KBIS 300454
MTRN60
METAR KN60 300452Z AUTO 03004KT 06/02 A3030 RMK AO1 SLP273 T00610022





000
SAUS43 KBIS 300354
MTRN60
METAR KN60 300352Z AUTO 03003KT 06/02 A3030 RMK AO1 SLP273 T00610017





000
SAUS43 KBIS 300253
MTRN60
METAR KN60 300252Z AUTO 02004KT 08/01 A3028 RMK AO1 SLP267 T00830011
51005





000
SAUS43 KBIS 300154
MTRN60
METAR KN60 300152Z AUTO 01003KT 12/01 A3028 RMK AO1 SLP264 T01220006





000
SAUS43 KBIS 300053
MTRN60
METAR KN60 300052Z AUTO 36007KT 13/00 A3028 RMK AO1 SLP259 T01330000





000
SAUS43 KBIS 292354
MTRN60
METAR KN60 292352Z AUTO 01007KT 14/01 A3027 RMK AO1 SLP257 T01390011
10139 20094 57001





000
SAUS43 KBIS 292354
MTRN60
METAR KN60 292352Z AUTO 01007KT 14/01 A3027 RMK AO1 SLP257 T01390011
10139 20094 57001





000
SAUS43 KBIS 292253
MTRN60
METAR KN60 292252Z AUTO 04007KT 13/01 A3027 RMK AO1 SLP258 T01330006





000
SAUS43 KBIS 292154
MTRN60
METAR KN60 292152Z AUTO 03006KT 13/01 A3027 RMK AO1 SLP258 T01280011





000
SAUS43 KBIS 292053
MTRN60
METAR KN60 292052Z AUTO 36007G19KT 12/01 A3027 RMK AO1 SLP259
T01170011 58002





000
SAUS43 KBIS 291954
MTRN60
METAR KN60 291952Z AUTO 02009G18KT 11/01 A3028 RMK AO1 SLP263
T01060006





000
SAUS43 KBIS 291853
MTRN60
METAR KN60 291852Z AUTO 02008G18KT 10/01 A3028 RMK AO1 SLP263
T01000011





000
SAUS43 KBIS 291754
MTRN60
METAR KN60 291752Z AUTO 02012G18KT 09/00 A3028 RMK AO1 SLP262
T00940000 10094 20078 51010





000
SAUS43 KBIS 291754
MTRN60
METAR KN60 291752Z AUTO 02012G18KT 09/00 A3028 RMK AO1 SLP262
T00940000 10094 20078 51010





000
SAUS43 KBIS 291654
MTRN60
METAR KN60 291652Z AUTO 01013G18KT 08/01 A3028 RMK AO1 SLP262
T00830011





000
SAUS43 KBIS 291554
MTRN60
METAR KN60 291552Z AUTO 01010G17KT 08/02 A3026 RMK AO1 SLP253
T00830017





000
SAUS43 KBIS 291453
MTRN60
METAR KN60 291452Z AUTO 01010G19KT 08/02 A3025 RMK AO1 SLP247
T00830017 53022





000
SAUS43 KBIS 291354
MTRN60
METAR KN60 291352Z AUTO 01010G23KT 08/02 A3022 RMK AO1 SLP237
T00780022





000
SAUS43 KBIS 291253
MTRN60
METAR KN60 291252Z AUTO 35020G24KT 08/03 A3019 RMK AO1 SLP224
T00830028





000
SAUS43 KBIS 291253
MTRN60
METAR KN60 291252Z AUTO 35020G24KT 08/03 A3019 RMK AO1 SLP224
T00830028





000
SAUS43 KBIS 291154
MTRN60
METAR KN60 291152Z AUTO 36010G19KT 08/04 A3018 RMK AO1 SLP220
T00830039 10111 20083 53025





000
SAUS43 KBIS 291154
MTRN60
METAR KN60 291152Z AUTO 36010G19KT 08/04 A3018 RMK AO1 SLP220
T00830039 10111 20083 53025





000
SAUS43 KBIS 291054
MTRN60
METAR KN60 291052Z AUTO 01011G20KT 08/04 A3014 RMK AO1 SLP209
T00830044





000
SAUS43 KBIS 291054
MTRN60
METAR KN60 291052Z AUTO 01011G20KT 08/04 A3014 RMK AO1 SLP209
T00830044





000
SAUS43 KBIS 290954
MTRN60
METAR KN60 290952Z AUTO 36014G21KT 09/05 A3012 RMK AO1 SLP201
T00890050





000
SAUS43 KBIS 290853
MTRN60
METAR KN60 290852Z AUTO 02012G22KT 10/06 A3010 RMK AO1 PK WND
01026/0815 SLP189 T01000056 53017





000
SAUS43 KBIS 290753
MTRN60
METAR KN60 290752Z AUTO 01013G28KT 10/06 A3007 RMK AO1 PK WND
02029/0701 SLP182 T01000056





000
SAUS43 KBIS 290653
MTRN60
METAR KN60 290652Z AUTO 02019G27KT 11/07 A3005 RMK AO1 PK WND
02027/0652 SLP176 T01060067





000
SAUS43 KBIS 290554
MTRN60
METAR KN60 290552Z AUTO 01011G21KT 11/08 A3004 RMK AO1 PK WND
03027/0515 SLP173 T01110078 10222 20111 402440111 51038





000
SAUS43 KBIS 290454
MTRN60
METAR KN60 290452Z AUTO 02012G24KT 12/08 A3001 RMK AO1 PK WND
02028/0424 SLP161 T01170083





000
SAUS43 KBIS 290454
MTRN60
METAR KN60 290452Z AUTO 02012G24KT 12/08 A3001 RMK AO1 PK WND
02028/0424 SLP161 T01170083





000
SAUS43 KBIS 290354
MTRN60
METAR KN60 290352Z AUTO 01012G22KT 16/12 A2996 RMK AO1 SLP144
T01560117





000
SAUS43 KBIS 290354
MTRN60
METAR KN60 290352Z AUTO 01012G22KT 16/12 A2996 RMK AO1 SLP144
T01560117





000
SAUS43 KBIS 290254
MTRN60
METAR KN60 290252Z AUTO 36007KT 17/13 A2992 RMK AO1 SLP131 T01720128
52021





000
SAUS43 KBIS 290154
MTRN60
METAR KN60 290152Z AUTO 01006KT 19/13 A2991 RMK AO1 SLP125 T01940133





000
SAUS43 KBIS 290053
MTRN60
METAR KN60 290052Z AUTO 35012KT 21/13 A2988 RMK AO1 SLP113 T02110133





000
SAUS43 KBIS 282354
MTRN60
METAR KN60 282352Z AUTO 01007KT 23/13 A2986 RMK AO1 SLP107 T02280133
10244 20211 53003





000
SAUS43 KBIS 282354
MTRN60
METAR KN60 282352Z AUTO 01007KT 23/13 A2986 RMK AO1 SLP107 T02280133
10244 20211 53003





000
SAUS43 KBIS 282253
MTRN60
METAR KN60 282252Z AUTO 02006KT 22/13 A2985 RMK AO1 SLP104 T02220133





000
SAUS43 KBIS 282253
MTRN60
METAR KN60 282252Z AUTO 02006KT 22/13 A2985 RMK AO1 SLP104 T02220133





000
SAUS43 KBIS 282153
MTRN60
METAR KN60 282152Z AUTO 36005KT 22/13 A2985 RMK AO1 SLP103 T02220133





000
SAUS43 KBIS 282153
MTRN60
METAR KN60 282152Z AUTO 36005KT 22/13 A2985 RMK AO1 SLP103 T02220133





000
SAUS43 KBIS 282053
MTRN60
METAR KN60 282052Z AUTO 33009KT 24/13 A2985 RMK AO1 SLP102 T02390133
58004





000
SAUS43 KBIS 281954
MTRN60
METAR KN60 281952Z AUTO 33013G17KT 22/14 A2986 RMK AO1 SLP107
T02220139





000
SAUS43 KBIS 281854
MTRN60
METAR KN60 281852Z AUTO 34012KT 23/14 A2986 RMK AO1 SLP106 T02280144





000
SAUS43 KBIS 281854
MTRN60
METAR KN60 281852Z AUTO 34012KT 23/14 A2986 RMK AO1 SLP106 T02280144





000
SAUS43 KBIS 281754
MTRN60
METAR KN60 281752Z AUTO 30009KT 21/14 A2986 RMK AO1 SLP108 T02110144
10222 20144 53002





000
SAUS43 KBIS 281754
MTRN60
METAR KN60 281752Z AUTO 30009KT 21/14 A2986 RMK AO1 SLP108 T02110144
10222 20144 53002





000
SAUS43 KBIS 281654
MTRN60
METAR KN60 281652Z AUTO 29008KT 20/15 A2985 RMK AO1 SLP106 T02000150





000
SAUS43 KBIS 281453
MTRN60
METAR KN60 281452Z AUTO 23009KT 17/14 A2985 RMK AO1 SLP108 T01670144
55005





000
SAUS43 KBIS 281354
MTRN60
METAR KN60 281352Z AUTO 22007KT 16/14 A2985 RMK AO1 SLP107 T01610144





000
SAUS43 KBIS 281253
MTRN60
METAR KN60 281252Z AUTO 21005KT 15/14 A2987 RMK AO1 SLP111 T01500139





000
SAUS43 KBIS 281154
MTRN60
METAR KN60 281152Z AUTO 17005KT 14/13 A2987 RMK AO1 SLP109 60001
70028 T01390128 10156 20128 58005





000
SAUS43 KBIS 281054
MTRN60
METAR KN60 281052Z AUTO 18005KT 13/12 A2988 RMK AO1 SLP113 T01330122





000
SAUS43 KBIS 281054
MTRN60
METAR KN60 281052Z AUTO 18005KT 13/12 A2988 RMK AO1 SLP113 T01330122





000
SAUS43 KBIS 280954
MTRN60
METAR KN60 280952Z AUTO 13004KT 15/13 A2988 RMK AO1 SLP111 T01500133





000
SAUS43 KBIS 280853
MTRN60
METAR KN60 280852Z AUTO 09004KT 16/14 A2988 RMK AO1 SLP111 P0001
60001 T01560139 57013





000
SAUS43 KBIS 280754
MTRN60
METAR KN60 280752Z AUTO 09004KT 16/14 A2990 RMK AO1 SLP116 T01560139





000
SAUS43 KBIS 280653
MTRN60
METAR KN60 280652Z AUTO 09008KT 16/13 A2991 RMK AO1 SLP120 T01560133





000
SAUS43 KBIS 280554
MTRN60
METAR KN60 280552Z AUTO 10009KT 16/14 A2992 RMK AO1 SLP126 60027
T01560139 10244 20156 402830117 56011





000
SAUS43 KBIS 280454
MTRN60
METAR KN60 280452Z AUTO 11009KT 16/14 A2993 RMK AO1 SLP129 P0004
T01560144





000
SAUS43 KBIS 280354
MTRN60
METAR KN60 280352Z AUTO 11007KT 16/14 A2994 RMK AO1 SLP133 P0015
T01560139





000
SAUS43 KBIS 280253
MTRN60
METAR KN60 280252Z AUTO 00000KT 16/14 A2996 RMK AO1 SLP140 P0005
60008 T01560139 51024





000
SAUS43 KBIS 280153
MTRN60
METAR KN60 280152Z AUTO 32011KT 16/14 A2994 RMK AO1 PK WND
28026/0056 WSHFT 0043 SLP137 P0003 T01560139





000
SAUS43 KBIS 280140
MTRN60
METAR KN60 271852Z AUTO 17005KT 27/08 A2994 RMK AO1 SLP132 T02670078





000
SAUS43 KBIS 280140
MTRN60
METAR KN60 271852Z AUTO 17005KT 27/08 A2994 RMK AO1 SLP132 T02670078





000
SAUS43 KBIS 280109
MTRN60
SPECI KN60 280103Z AUTO 29017G26KT 18/12 A2993 RMK AO1 PK WND
28026/0056 WSHFT 0043 T01830117





000
SAUS43 KBIS 280058
MTRN60
METAR KN60 280052Z AUTO 29017KT 19/11 A2993 RMK AO1 SLP131 T01940106





000
SAUS43 KBIS 280058
MTRN60
METAR KN60 280052Z AUTO 29017KT 19/11 A2993 RMK AO1 SLP131 T01940106





000
SAUS43 KBIS 272358
MTRN60
METAR KN60 272352Z AUTO 15006KT 24/07 A2988 RMK AO1 SLP114 T02440072
10283 20239 58010





000
SAUS43 KBIS 272258
MTRN60
METAR KN60 272252Z AUTO 18011KT 24/08 A2990 RMK AO1 SLP120 T02440078





000
SAUS43 KBIS 272258
MTRN60
METAR KN60 272252Z AUTO 18011KT 24/08 A2990 RMK AO1 SLP120 T02440078





000
SAUS43 KBIS 272158
MTRN60
METAR KN60 272152Z AUTO 16009KT 27/07 A2990 RMK AO1 SLP118 T02720072





000
SAUS43 KBIS 272058
MTRN60
METAR KN60 272052Z AUTO 17012KT 27/06 A2991 RMK AO1 SLP124 T02720061
56013





000
SAUS43 KBIS 272058
MTRN60
METAR KN60 272052Z AUTO 17012KT 27/06 A2991 RMK AO1 SLP124 T02720061
56013





000
SAUS43 KBIS 271958
MTRN60
METAR KN60 271952Z AUTO 18010KT 27/08 A2992 RMK AO1 SLP124 T02720078





000
SAUS43 KBIS 271958
MTRN60
METAR KN60 271952Z AUTO 18010KT 27/08 A2992 RMK AO1 SLP124 T02720078





000
SAUS43 KBIS 271654
MTRN60
METAR KN60 271652Z AUTO 14008KT 24/11 A2996 RMK AO1 SLP138 T02440111





000
SAUS43 KBIS 271654
MTRN60
METAR KN60 271652Z AUTO 14008KT 24/11 A2996 RMK AO1 SLP138 T02440111





    US Dept of Commerce
    National Oceanic and Atmospheric Administration
    National Weather Service
    1325 East West Highway
    Silver Spring, MD 20910
    Page Author: NWS Internet Services Team
Disclaimer
Information Quality
Credits
Glossary
Privacy Policy
Freedom of Information Act (FOIA)
About Us
Career Opportunities